Time;durP1;ratioP1;P1;durP2;ratioP2;P2;SDS_P1;SDS_P2;PMS_P1;PMS_P2;Temp;Humidity;BMP_temperature;BMP_pressure;BME280_temperature;BME280_humidity;BME280_pressure;Samples;Min_cycle;Max_cycle;Signal;HPM_P1;HPM_P2
2022/08/05 00:00:42;;;;;;;;;;;;;;;;;;6190594;23;19918;-88
2022/08/05 00:03:08;;;;;;;;;;;;;;;;;;6215916;23;20324;-88
2022/08/05 00:05:36;;;;;;;;;;;;;;;;;;6191290;23;19946;-89
2022/08/05 00:08:02;;;;;;;;;;;;;;;;;;6216246;23;19915;-88
2022/08/05 00:10:28;;;;;;;;;;;;;;;;;;6192060;23;20281;-88
2022/08/05 00:12:53;;;;;;;;;;;;;;;;;;6216174;23;19963;-88
2022/08/05 00:15:20;;;;;;;;;;;;;;;;;;6216597;23;20000;-88
2022/08/05 00:17:45;;;;;;;;;;;;;;;;;;6160428;23;19943;-88
2022/08/05 00:20:11;;;;;;;;;;;;;;;;;;6160791;23;19912;-88
2022/08/05 00:22:40;;;;;;;;;;;;;;;;;;6163913;23;19947;-88
2022/08/05 00:25:06;;;;;;;;;;;;;;;;;;6189200;23;19916;-88
2022/08/05 00:27:31;;;;;;;;;;;;;;;;;;6191532;23;19918;-88
2022/08/05 00:29:57;;;;;;;;;;;;;;;;;;6191138;23;19915;-88
2022/08/05 00:32:23;;;;;;;;;;;;;;;;;;6190623;23;20329;-88
2022/08/05 00:34:49;;;;;;;;;;;;;;;;;;6216965;23;19918;-89
2022/08/05 00:37:15;;;;;;;;;;;;;;;;;;6192667;23;19915;-89
2022/08/05 00:39:42;;;;;;;;;;;;;;;;;;6190978;23;19910;-87
2022/08/05 00:42:11;;;;;;;;;;;;;;;;;;6194633;23;19985;-89
2022/08/05 00:44:37;;;;;;;;;;;;;;;;;;6217555;23;19927;-89
2022/08/05 00:47:09;;;;;;;;;;;;;;;;;;6215150;23;19916;-88
2022/08/05 00:49:35;;;;;;;;;;;;;;;;;;6192087;23;19927;-88
2022/08/05 00:52:01;;;;;;;;;;;;;;;;;;6208699;23;19925;-89
2022/08/05 00:54:26;;;;;;;;;;;;;;;;;;6192378;23;19916;-89
2022/08/05 00:56:52;;;;;;;;;;;;;;;;;;6183514;23;19977;-88
2022/08/05 00:59:19;;;;;;;;;;;;;;;;;;6193322;23;19922;-88
2022/08/05 01:01:47;;;;;;;;;;;;;;;;;;6217196;23;19931;-88
2022/08/05 01:04:12;;;;;;;;;;;;;;;;;;6190134;23;20330;-88
2022/08/05 01:06:38;;;;;;;;;;;;;;;;;;6205335;23;19934;-88
2022/08/05 01:09:05;;;;;;;;;;;;;;;;;;6192319;23;19942;-88
2022/08/05 01:11:32;;;;;;;;;;;;;;;;;;6186826;22;20362;-88
2022/08/05 01:14:04;;;;;;;;;;;;;;;;;;6189754;23;20231;-88
2022/08/05 01:16:31;;;;;;;;;;;;;;;;;;6188088;23;19915;-86
2022/08/05 01:19:04;;;;;;;;;;;;;;;;;;6189215;23;19911;-88
2022/08/05 01:21:30;;;;;;;;;;;;;;;;;;6191273;23;19912;-87
2022/08/05 01:24:05;;;;;;;;;;;;;;;;;;6208079;23;19912;-86
2022/08/05 01:26:55;;;;;;;;;;;;;;;;;;6217590;23;20387;-86
2022/08/05 01:29:26;;;;;;;;;;;;;;;;;;6215736;23;19934;-87
2022/08/05 01:31:52;;;;;;;;;;;;;;;;;;6187170;23;19911;-86
2022/08/05 01:34:19;;;;;;;;;;;;;;;;;;6188448;23;19918;-86
2022/08/05 01:36:57;;;;;;;;;;;;;;;;;;6210473;23;20358;-86
2022/08/05 01:39:23;;;;;;;;;;;;;;;;;;6192394;23;19982;-89
2022/08/05 01:41:51;;;;;;;;;;;;;;;;;;6216794;23;19986;-90
2022/08/05 01:44:18;;;;;;;;;;;;;;;;;;6191256;23;19987;-89
2022/08/05 01:46:45;;;;;;;;;;;;;;;;;;6191039;23;19912;-87
2022/08/05 01:49:14;;;;;;;;;;;;;;;;;;6190132;23;20138;-87
2022/08/05 01:51:41;;;;;;;;;;;;;;;;;;6190670;22;19955;-87
2022/08/05 01:54:09;;;;;;;;;;;;;;;;;;6191055;23;20288;-87
2022/08/05 01:56:37;;;;;;;;;;;;;;;;;;6190235;23;19919;-88
2022/08/05 01:59:07;;;;;;;;;;;;;;;;;;6188488;23;20249;-88
2022/08/05 02:01:34;;;;;;;;;;;;;;;;;;6190558;23;19919;-88
2022/08/05 02:04:00;;;;;;;;;;;;;;;;;;6186616;23;20301;-88
2022/08/05 02:06:28;;;;;;;;;;;;;;;;;;6181419;23;19911;-87
2022/08/05 02:08:54;;;;;;;;;;;;;;;;;;6191540;23;19962;-88
2022/08/05 02:11:19;;;;;;;;;;;;;;;;;;6193172;23;19935;-87
2022/08/05 02:13:55;;;;;;;;;;;;;;;;;;6190547;23;19911;-87
2022/08/05 02:16:22;;;;;;;;;;;;;;;;;;6237895;22;19920;-87
2022/08/05 02:19:08;;;;;;;;;;;;;;;;;;6190808;23;20234;-88
2022/08/05 02:21:34;;;;;;;;;;;;;;;;;;6241548;23;20006;-87
2022/08/05 02:24:03;;;;;;;;;;;;;;;;;;6177862;23;19943;-87
2022/08/05 02:26:41;;;;;;;;;;;;;;;;;;6190192;23;19955;-88
2022/08/05 02:29:07;;;;;;;;;;;;;;;;;;6191580;23;19958;-89
2022/08/05 02:31:33;;;;;;;;;;;;;;;;;;6181557;23;20086;-89
2022/08/05 02:34:00;;;;;;;;;;;;;;;;;;6216189;23;19935;-89
2022/08/05 02:36:26;;;;;;;;;;;;;;;;;;6178692;23;19987;-89
2022/08/05 02:38:52;;;;;;;;;;;;;;;;;;6183614;23;20456;-87
2022/08/05 02:41:18;;;;;;;;;;;;;;;;;;6193660;23;19915;-86
2022/08/05 02:43:46;;;;;;;;;;;;;;;;;;6218310;22;19916;-87
2022/08/05 02:46:14;;;;;;;;;;;;;;;;;;6191981;23;19919;-87
2022/08/05 02:48:41;;;;;;;;;;;;;;;;;;6192074;23;20368;-89
2022/08/05 02:51:07;;;;;;;;;;;;;;;;;;6217592;23;19942;-88
2022/08/05 02:53:33;;;;;;;;;;;;;;;;;;6193437;23;19911;-88
2022/08/05 02:55:59;;;;;;;;;;;;;;;;;;6193806;23;19911;-88
2022/08/05 02:58:25;;;;;;;;;;;;;;;;;;6193329;23;19955;-88
2022/08/05 03:00:54;;;;;;;;;;;;;;;;;;6173722;23;19987;-88
2022/08/05 03:03:23;;;;;;;;;;;;;;;;;;6174244;23;19912;-87
2022/08/05 03:05:48;;;;;;;;;;;;;;;;;;6192718;23;19958;-87
2022/08/05 03:08:14;;;;;;;;;;;;;;;;;;6192208;23;19927;-88
2022/08/05 03:10:46;;;;;;;;;;;;;;;;;;6184542;23;19915;-87
2022/08/05 03:13:15;;;;;;;;;;;;;;;;;;6193343;23;20351;-87
2022/08/05 03:15:41;;;;;;;;;;;;;;;;;;6217738;23;20001;-87
2022/08/05 03:18:10;;;;;;;;;;;;;;;;;;6194119;23;19959;-89
2022/08/05 03:20:35;;;;;;;;;;;;;;;;;;6192413;23;19915;-88
2022/08/05 03:23:01;;;;;;;;;;;;;;;;;;6183617;23;19982;-89
2022/08/05 03:25:27;;;;;;;;;;;;;;;;;;6189917;23;19912;-88
2022/08/05 03:27:55;;;;;;;;;;;;;;;;;;6182623;23;19911;-88
2022/08/05 03:30:21;;;;;;;;;;;;;;;;;;6191942;23;19911;-89
2022/08/05 03:32:47;;;;;;;;;;;;;;;;;;6186648;23;19938;-89
2022/08/05 03:35:13;;;;;;;;;;;;;;;;;;6160934;23;20287;-89
2022/08/05 03:37:39;;;;;;;;;;;;;;;;;;6164389;23;19942;-89
2022/08/05 03:40:07;;;;;;;;;;;;;;;;;;6212688;23;20384;-89
2022/08/05 03:42:33;;;;;;;;;;;;;;;;;;6161834;23;19915;-89
2022/08/05 03:44:59;;;;;;;;;;;;;;;;;;6158132;23;20424;-89
2022/08/05 03:47:25;;;;;;;;;;;;;;;;;;6160565;23;19918;-89
2022/08/05 03:49:50;;;;;;;;;;;;;;;;;;6227616;23;19954;-89
2022/08/05 03:52:17;;;;;;;;;;;;;;;;;;6188613;23;19972;-89
2022/08/05 03:54:48;;;;;;;;;;;;;;;;;;6189248;23;19946;-89
2022/08/05 03:57:14;;;;;;;;;;;;;;;;;;6189017;23;19899;-89
2022/08/05 03:59:49;;;;;;;;;;;;;;;;;;6190693;23;20368;-89
2022/08/05 04:02:15;;;;;;;;;;;;;;;;;;6158313;23;19943;-89
2022/08/05 04:04:41;;;;;;;;;;;;;;;;;;6163857;23;19931;-89
2022/08/05 04:07:07;;;;;;;;;;;;;;;;;;6164670;23;20288;-89
2022/08/05 04:09:32;;;;;;;;;;;;;;;;;;6189384;23;19916;-88
2022/08/05 04:11:58;;;;;;;;;;;;;;;;;;6158856;23;19938;-89
2022/08/05 04:14:25;;;;;;;;;;;;;;;;;;6158131;23;20212;-89
2022/08/05 04:16:50;;;;;;;;;;;;;;;;;;6158764;23;19927;-89
2022/08/05 04:19:16;;;;;;;;;;;;;;;;;;6200648;23;20329;-89
2022/08/05 04:21:41;;;;;;;;;;;;;;;;;;6188144;23;19911;-89
2022/08/05 04:24:07;;;;;;;;;;;;;;;;;;6188847;23;19939;-89
2022/08/05 04:26:33;;;;;;;;;;;;;;;;;;6188068;23;20379;-89
2022/08/05 04:28:59;;;;;;;;;;;;;;;;;;6188631;23;19919;-89
2022/08/05 04:31:25;;;;;;;;;;;;;;;;;;6185962;23;19919;-88
2022/08/05 04:33:50;;;;;;;;;;;;;;;;;;6188502;23;19911;-90
2022/08/05 04:36:16;;;;;;;;;;;;;;;;;;6187777;23;19922;-89
2022/08/05 04:38:42;;;;;;;;;;;;;;;;;;6188386;23;19916;-89
2022/08/05 04:41:07;;;;;;;;;;;;;;;;;;6187942;23;19975;-89
2022/08/05 04:43:33;;;;;;;;;;;;;;;;;;6188276;23;19911;-89
2022/08/05 04:45:59;;;;;;;;;;;;;;;;;;6188090;23;19942;-89
2022/08/05 04:48:24;;;;;;;;;;;;;;;;;;6188054;23;19986;-89
2022/08/05 04:50:50;;;;;;;;;;;;;;;;;;6188497;23;19931;-89
2022/08/05 04:53:16;;;;;;;;;;;;;;;;;;6212689;23;19987;-90
2022/08/05 04:55:42;;;;;;;;;;;;;;;;;;6212376;23;19927;-89
2022/08/05 04:58:08;;;;;;;;;;;;;;;;;;6212639;23;20246;-89
2022/08/05 05:00:34;;;;;;;;;;;;;;;;;;6185724;23;19919;-89
2022/08/05 05:03:00;;;;;;;;;;;;;;;;;;6188719;23;19911;-89
2022/08/05 05:05:26;;;;;;;;;;;;;;;;;;6188807;23;20010;-88
2022/08/05 05:07:52;;;;;;;;;;;;;;;;;;6187897;23;20266;-90
2022/08/05 05:10:18;;;;;;;;;;;;;;;;;;6161980;23;19934;-89
2022/08/05 05:12:43;;;;;;;;;;;;;;;;;;6161912;23;20039;-90
2022/08/05 05:15:09;;;;;;;;;;;;;;;;;;6158384;23;19958;-89
2022/08/05 05:17:38;;;;;;;;;;;;;;;;;;6158668;23;19966;-88
2022/08/05 05:20:05;;;;;;;;;;;;;;;;;;6159893;23;19915;-88
2022/08/05 05:22:30;;;;;;;;;;;;;;;;;;6150576;23;19939;-88
2022/08/05 05:24:56;;;;;;;;;;;;;;;;;;6202089;22;20275;-88
2022/08/05 05:27:22;;;;;;;;;;;;;;;;;;6156610;23;19970;-88
2022/08/05 05:29:47;;;;;;;;;;;;;;;;;;6163542;23;20322;-88
2022/08/05 05:32:13;;;;;;;;;;;;;;;;;;6136034;23;20008;-89
2022/08/05 05:34:38;;;;;;;;;;;;;;;;;;6157434;23;19961;-88
2022/08/05 05:37:04;;;;;;;;;;;;;;;;;;6137679;23;20318;-88
2022/08/05 05:39:30;;;;;;;;;;;;;;;;;;6157427;23;19911;-90
2022/08/05 05:41:56;;;;;;;;;;;;;;;;;;6181825;23;19938;-88
2022/08/05 05:44:21;;;;;;;;;;;;;;;;;;6158670;23;19978;-90
2022/08/05 05:46:47;;;;;;;;;;;;;;;;;;6158324;23;20342;-86
2022/08/05 05:49:13;;;;;;;;;;;;;;;;;;6207086;23;19939;-87
2022/08/05 05:51:38;;;;;;;;;;;;;;;;;;6152250;22;19906;-87
2022/08/05 05:54:04;;;;;;;;;;;;;;;;;;6184822;23;19947;-87
2022/08/05 05:56:33;;;;;;;;;;;;;;;;;;6178715;23;19978;-87
2022/08/05 05:59:01;;;;;;;;;;;;;;;;;;6180528;23;19916;-87
2022/08/05 06:01:27;;;;;;;;;;;;;;;;;;6213581;23;19915;-87
2022/08/05 06:03:55;;;;;;;;;;;;;;;;;;6178287;23;19942;-88
2022/08/05 06:06:23;;;;;;;;;;;;;;;;;;6181316;23;19982;-88
2022/08/05 06:08:49;;;;;;;;;;;;;;;;;;6189230;23;19911;-88
2022/08/05 06:11:14;;;;;;;;;;;;;;;;;;6202116;23;20302;-88
2022/08/05 06:13:40;;;;;;;;;;;;;;;;;;6190093;23;20329;-87
2022/08/05 06:16:06;;;;;;;;;;;;;;;;;;6187053;23;19922;-88
2022/08/05 06:18:32;;;;;;;;;;;;;;;;;;6183738;23;20091;-87
2022/08/05 06:20:59;;;;;;;;;;;;;;;;;;6190423;23;19919;-87
2022/08/05 06:23:25;;;;;;;;;;;;;;;;;;6172725;23;19918;-85
2022/08/05 06:25:51;;;;;;;;;;;;;;;;;;6186256;23;19911;-88
2022/08/05 06:28:16;;;;;;;;;;;;;;;;;;6189755;23;19939;-88
2022/08/05 06:30:42;;;;;;;;;;;;;;;;;;6194937;23;19993;-88
2022/08/05 06:33:11;;;;;;;;;;;;;;;;;;6188602;23;20109;-88
2022/08/05 06:35:36;;;;;;;;;;;;;;;;;;6214301;22;19947;-87
2022/08/05 06:38:02;;;;;;;;;;;;;;;;;;6212711;23;20248;-86
2022/08/05 06:40:30;;;;;;;;;;;;;;;;;;6190418;23;19959;-90
2022/08/05 06:42:56;;;;;;;;;;;;;;;;;;6189587;23;19911;-88
2022/08/05 06:45:22;;;;;;;;;;;;;;;;;;6189183;23;19918;-88
2022/08/05 06:47:48;;;;;;;;;;;;;;;;;;6187970;23;19923;-88
2022/08/05 06:50:14;;;;;;;;;;;;;;;;;;6168510;23;19918;-88
2022/08/05 06:52:42;;;;;;;;;;;;;;;;;;6167700;23;20199;-88
2022/08/05 06:55:08;;;;;;;;;;;;;;;;;;6185591;23;20260;-88
2022/08/05 06:57:37;;;;;;;;;;;;;;;;;;6188632;23;20309;-89
2022/08/05 07:00:03;;;;;;;;;;;;;;;;;;6214665;23;20002;-87
2022/08/05 07:02:29;;;;;;;;;;;;;;;;;;6186758;23;19965;-87
2022/08/05 07:04:55;;;;;;;;;;;;;;;;;;6202753;22;19935;-87
2022/08/05 07:07:20;;;;;;;;;;;;;;;;;;6187318;23;19935;-88
2022/08/05 07:09:46;;;;;;;;;;;;;;;;;;6186547;23;20371;-88
2022/08/05 07:16:48;;;;;;;;;;;;;;;;;;6198996;23;19950;-88
2022/08/05 07:17:45;;;;;;;;;;;;;;;;;;6203896;23;19924;-88
2022/08/05 07:20:11;;;;;;;;;;;;;;;;;;6190086;23;20388;-87
2022/08/05 07:22:37;;;;;;;;;;;;;;;;;;6183596;23;19911;-88
2022/08/05 07:25:03;;;;;;;;;;;;;;;;;;6214602;23;20250;-88
2022/08/05 07:27:29;;;;;;;;;;;;;;;;;;6190401;23;19899;-88
2022/08/05 07:29:57;;;;;;;;;;;;;;;;;;6190146;22;20334;-88
2022/08/05 07:32:23;;;;;;;;;;;;;;;;;;6212771;23;20356;-88
2022/08/05 07:34:49;;;;;;;;;;;;;;;;;;6190926;23;19911;-87
2022/08/05 07:37:14;;;;;;;;;;;;;;;;;;6189870;23;19939;-89
2022/08/05 07:39:43;;;;;;;;;;;;;;;;;;6189789;23;19912;-88
2022/08/05 07:42:09;;;;;;;;;;;;;;;;;;6190267;23;19915;-88
2022/08/05 07:44:35;;;;;;;;;;;;;;;;;;6190048;23;20330;-88
2022/08/05 07:47:01;;;;;;;;;;;;;;;;;;6189705;23;19938;-88
2022/08/05 07:49:28;;;;;;;;;;;;;;;;;;6190179;23;19942;-89
2022/08/05 07:51:56;;;;;;;;;;;;;;;;;;6217301;23;19943;-88
2022/08/05 07:54:25;;;;;;;;;;;;;;;;;;6176696;23;19983;-87
2022/08/05 07:56:51;;;;;;;;;;;;;;;;;;6211209;23;19912;-86
2022/08/05 07:59:20;;;;;;;;;;;;;;;;;;6177591;23;20043;-86
2022/08/05 08:01:49;;;;;;;;;;;;;;;;;;6195271;23;19912;-85
2022/08/05 08:04:15;;;;;;;;;;;;;;;;;;6217749;23;20334;-85
2022/08/05 08:06:40;;;;;;;;;;;;;;;;;;6129473;23;19939;-85
2022/08/05 08:09:06;;;;;;;;;;;;;;;;;;6178594;23;19939;-85
2022/08/05 08:11:32;;;;;;;;;;;;;;;;;;6191127;23;20348;-85
2022/08/05 08:13:57;;;;;;;;;;;;;;;;;;6190777;23;19939;-85
2022/08/05 08:16:23;;;;;;;;;;;;;;;;;;6161359;23;19935;-85
2022/08/05 08:18:49;;;;;;;;;;;;;;;;;;6187423;23;20583;-85
2022/08/05 08:21:15;;;;;;;;;;;;;;;;;;6186834;23;19916;-85
2022/08/05 08:23:41;;;;;;;;;;;;;;;;;;6209621;23;20365;-85
2022/08/05 08:26:07;;;;;;;;;;;;;;;;;;6211873;23;20404;-85
2022/08/05 08:28:33;;;;;;;;;;;;;;;;;;6188556;23;19939;-85
2022/08/05 08:30:59;;;;;;;;;;;;;;;;;;6187996;23;19912;-85
2022/08/05 08:33:24;;;;;;;;;;;;;;;;;;6187374;23;20680;-85
2022/08/05 08:35:50;;;;;;;;;;;;;;;;;;6213572;23;19933;-85
2022/08/05 08:38:16;;;;;;;;;;;;;;;;;;6188282;23;19919;-86
2022/08/05 08:40:43;;;;;;;;;;;;;;;;;;6149267;23;19911;-87
2022/08/05 08:43:11;;;;;;;;;;;;;;;;;;6186598;23;19987;-86
2022/08/05 08:45:37;;;;;;;;;;;;;;;;;;6177509;23;20245;-85
2022/08/05 08:48:05;;;;;;;;;;;;;;;;;;6182337;23;19915;-86
2022/08/05 08:50:35;;;;;;;;;;;;;;;;;;6181490;23;19911;-87
2022/08/05 08:53:03;;;;;;;;;;;;;;;;;;6120146;23;19940;-90
2022/08/05 08:55:32;;;;;;;;;;;;;;;;;;6158190;23;19912;-88
2022/08/05 08:57:59;;;;;;;;;;;;;;;;;;6174208;23;19966;-84
2022/08/05 09:00:24;;;;;;;;;;;;;;;;;;6217449;23;20379;-86
2022/08/05 09:02:50;;;;;;;;;;;;;;;;;;6189679;23;19911;-84
2022/08/05 09:05:16;;;;;;;;;;;;;;;;;;6189126;23;20600;-84
2022/08/05 09:07:41;;;;;;;;;;;;;;;;;;6186142;23;19986;-84
2022/08/05 09:10:07;;;;;;;;;;;;;;;;;;6216964;23;19968;-85
2022/08/05 09:12:33;;;;;;;;;;;;;;;;;;6188282;23;19918;-84
2022/08/05 09:15:00;;;;;;;;;;;;;;;;;;6184021;23;20285;-85
2022/08/05 09:17:26;;;;;;;;;;;;;;;;;;6190601;23;19915;-84
2022/08/05 09:19:51;;;;;;;;;;;;;;;;;;6188393;23;19935;-84
2022/08/05 09:22:17;;;;;;;;;;;;;;;;;;6189580;23;21371;-84
2022/08/05 09:24:43;;;;;;;;;;;;;;;;;;6189642;23;20342;-84
2022/08/05 09:27:09;;;;;;;;;;;;;;;;;;6177728;23;20095;-86
2022/08/05 09:29:38;;;;;;;;;;;;;;;;;;6188359;22;19926;-85
2022/08/05 09:32:06;;;;;;;;;;;;;;;;;;6186257;23;19986;-85
2022/08/05 09:34:50;;;;;;;;;;;;;;;;;;6185769;23;19991;-85
2022/08/05 09:37:19;;;;;;;;;;;;;;;;;;6210945;23;20245;-85
2022/08/05 09:39:45;;;;;;;;;;;;;;;;;;6187422;23;19911;-85
2022/08/05 09:42:11;;;;;;;;;;;;;;;;;;6188201;23;19978;-86
2022/08/05 09:44:40;;;;;;;;;;;;;;;;;;6211602;23;19911;-85
2022/08/05 09:47:32;;;;;;;;;;;;;;;;;;6187549;23;19954;-86
2022/08/05 09:49:58;;;;;;;;;;;;;;;;;;6235097;22;19978;-85
2022/08/05 09:52:27;;;;;;;;;;;;;;;;;;6187680;23;20348;-85
2022/08/05 09:54:56;;;;;;;;;;;;;;;;;;6186934;23;19916;-86
2022/08/05 09:57:34;;;;;;;;;;;;;;;;;;6213249;23;19973;-86
2022/08/05 10:00:08;;;;;;;;;;;;;;;;;;6212608;22;19920;-86
2022/08/05 10:02:35;;;;;;;;;;;;;;;;;;6158000;23;19963;-86
2022/08/05 10:05:08;;;;;;;;;;;;;;;;;;6158626;23;19916;-85
2022/08/05 10:07:44;;;;;;;;;;;;;;;;;;6210865;23;20249;-86
2022/08/05 10:10:09;;;;;;;;;;;;;;;;;;6160503;23;20267;-86
2022/08/05 10:12:48;;;;;;;;;;;;;;;;;;6211500;23;19991;-85
2022/08/05 10:15:14;;;;;;;;;;;;;;;;;;6157337;23;19918;-85
2022/08/05 10:17:40;;;;;;;;;;;;;;;;;;6159323;23;19916;-85
2022/08/05 10:20:06;;;;;;;;;;;;;;;;;;6211729;23;19958;-85
2022/08/05 10:22:32;;;;;;;;;;;;;;;;;;6156433;23;20356;-85
2022/08/05 10:24:58;;;;;;;;;;;;;;;;;;6177955;23;19974;-85
2022/08/05 10:27:24;;;;;;;;;;;;;;;;;;6187374;23;19958;-85
2022/08/05 10:29:49;;;;;;;;;;;;;;;;;;6187978;23;20449;-85
2022/08/05 10:32:15;;;;;;;;;;;;;;;;;;6189690;23;19924;-86
2022/08/05 10:34:41;;;;;;;;;;;;;;;;;;6187404;23;19911;-85
2022/08/05 10:37:06;;;;;;;;;;;;;;;;;;6187378;23;19926;-85
2022/08/05 10:39:33;;;;;;;;;;;;;;;;;;6212704;23;19922;-85
2022/08/05 10:42:00;;;;;;;;;;;;;;;;;;6211506;23;19982;-86
2022/08/05 10:44:26;;;;;;;;;;;;;;;;;;6161322;23;19966;-87
2022/08/05 10:46:55;;;;;;;;;;;;;;;;;;6173861;22;19911;-88
2022/08/05 10:49:22;;;;;;;;;;;;;;;;;;6206164;23;19919;-89
2022/08/05 10:51:51;;;;;;;;;;;;;;;;;;6167706;23;20236;-88
2022/08/05 10:54:18;;;;;;;;;;;;;;;;;;6135892;23;19936;-88
2022/08/05 10:56:55;;;;;;;;;;;;;;;;;;6060400;23;19917;-88
2022/08/05 10:59:41;;;;;;;;;;;;;;;;;;6097789;23;20383;-88
2022/08/05 11:05:20;;;;;;;;;;;;;;;;;;6089616;23;20008;-88
2022/08/05 11:08:09;;;;;;;;;;;;;;;;;;6109614;23;19935;-90
2022/08/05 11:10:42;;;;;;;;;;;;;;;;;;6096580;23;19912;-89
2022/08/05 11:13:08;;;;;;;;;;;;;;;;;;6164016;23;20237;-89
2022/08/05 11:15:40;;;;;;;;;;;;;;;;;;6159042;23;19991;-89
2022/08/05 11:18:07;;;;;;;;;;;;;;;;;;6187946;23;19912;-90
2022/08/05 11:20:49;;;;;;;;;;;;;;;;;;6146075;23;19922;-90
2022/08/05 11:23:24;;;;;;;;;;;;;;;;;;6175166;23;19916;-87
2022/08/05 11:26:07;;;;;;;;;;;;;;;;;;6122284;23;19936;-90
2022/08/05 11:28:36;;;;;;;;;;;;;;;;;;6164162;23;20318;-90
2022/08/05 11:31:07;;;;;;;;;;;;;;;;;;6191308;22;19958;-89
2022/08/05 11:33:37;;;;;;;;;;;;;;;;;;6183555;23;19922;-89
2022/08/05 11:36:07;;;;;;;;;;;;;;;;;;6147429;23;20014;-89
2022/08/05 11:39:11;;;;;;;;;;;;;;;;;;6089057;23;19912;-89
2022/08/05 11:41:49;;;;;;;;;;;;;;;;;;6098975;23;20373;-89
2022/08/05 11:44:51;;;;;;;;;;;;;;;;;;6060738;23;19912;-89
2022/08/05 11:47:27;;;;;;;;;;;;;;;;;;6081890;23;19991;-89
2022/08/05 11:50:25;;;;;;;;;;;;;;;;;;6053278;23;19917;-89
2022/08/05 11:53:06;;;;;;;;;;;;;;;;;;;;;
2022/08/05 11:58:51;;;;;;;;;;;;;;;;;;6043543;23;19921;-90
2022/08/05 12:02:06;;;;;;;;;;;;;;;;;;6012047;23;19917;-90
2022/08/05 12:11:04;;;;;;;;;;;;;;;;;;6074573;23;19924;-89
2022/08/05 12:13:34;;;;;;;;;;;;;;;;;;6035408;23;19917;-89
2022/08/05 12:16:23;;;;;;;;;;;;;;;;;;6002234;23;19921;-88
2022/08/05 12:18:51;;;;;;;;;;;;;;;;;;6084549;23;19916;-87
2022/08/05 12:21:27;;;;;;;;;;;;;;;;;;6020623;23;19913;-87
2022/08/05 12:24:12;;;;;;;;;;;;;;;;;;6112009;23;19916;-87
2022/08/05 12:27:16;;;;;;;;;;;;;;;;;;6114539;23;19915;-87
2022/08/05 12:29:57;;;;;;;;;;;;;;;;;;6156524;23;20276;-88
2022/08/05 12:32:28;;;;;;;;;;;;;;;;;;6127373;23;20535;-88
2022/08/05 12:35:01;;;;;;;;;;;;;;;;;;6131642;23;19963;-88
2022/08/05 12:37:28;;;;;;;;;;;;;;;;;;6219892;22;19911;-88
2022/08/05 12:39:53;;;;;;;;;;;;;;;;;;6189699;23;19946;-88
2022/08/05 12:42:20;;;;;;;;;;;;;;;;;;6189026;23;20340;-88
2022/08/05 12:44:45;;;;;;;;;;;;;;;;;;6188000;23;20367;-90
2022/08/05 12:47:12;;;;;;;;;;;;;;;;;;6182380;23;19965;-90
2022/08/05 12:49:43;;;;;;;;;;;;;;;;;;6168997;23;20277;-90
2022/08/05 12:52:13;;;;;;;;;;;;;;;;;;6163042;23;19919;-90
2022/08/05 12:54:39;;;;;;;;;;;;;;;;;;6181529;23;19918;-89
2022/08/05 12:57:07;;;;;;;;;;;;;;;;;;6174520;23;19912;-90
2022/08/05 12:59:43;;;;;;;;;;;;;;;;;;6191353;23;20203;-89
2022/08/05 13:02:11;;;;;;;;;;;;;;;;;;6176141;23;19915;-90
2022/08/05 13:04:38;;;;;;;;;;;;;;;;;;6212731;23;19948;-91
2022/08/05 13:07:06;;;;;;;;;;;;;;;;;;6173698;23;20356;-89
2022/08/05 13:09:31;;;;;;;;;;;;;;;;;;6180988;23;20127;-89
2022/08/05 13:12:04;;;;;;;;;;;;;;;;;;6121746;23;20086;-91
2022/08/05 13:14:39;;;;;;;;;;;;;;;;;;6120331;23;20273;-91
2022/08/05 13:17:12;;;;;;;;;;;;;;;;;;6200869;23;19927;-90
2022/08/05 13:19:38;;;;;;;;;;;;;;;;;;6187138;23;19918;-90
2022/08/05 13:22:04;;;;;;;;;;;;;;;;;;6197963;23;19973;-90
2022/08/05 13:24:31;;;;;;;;;;;;;;;;;;6154980;23;19915;-91
2022/08/05 13:27:00;;;;;;;;;;;;;;;;;;6183715;23;19916;-91
2022/08/05 13:29:51;;;;;;;;;;;;;;;;;;6137107;23;19916;-90
2022/08/05 13:32:19;;;;;;;;;;;;;;;;;;6151736;23;20280;-90
2022/08/05 13:34:51;;;;;;;;;;;;;;;;;;6166147;23;20013;-91
2022/08/05 13:37:23;;;;;;;;;;;;;;;;;;6196177;23;20234;-90
2022/08/05 13:39:52;;;;;;;;;;;;;;;;;;6204453;23;20245;-88
2022/08/05 13:42:19;;;;;;;;;;;;;;;;;;6162616;23;19998;-89
2022/08/05 13:45:26;;;;;;;;;;;;;;;;;;6146147;23;20183;-88
2022/08/05 13:48:09;;;;;;;;;;;;;;;;;;6199858;22;20063;-91
2022/08/05 13:50:36;;;;;;;;;;;;;;;;;;6146604;23;20405;-89
2022/08/05 13:53:02;;;;;;;;;;;;;;;;;;6136286;23;19912;-90
2022/08/05 13:55:28;;;;;;;;;;;;;;;;;;6124603;23;19922;-91
2022/08/05 13:58:17;;;;;;;;;;;;;;;;;;6197732;23;19927;-92
2022/08/05 14:00:50;;;;;;;;;;;;;;;;;;6158079;23;20397;-89
2022/08/05 14:03:20;;;;;;;;;;;;;;;;;;6164038;23;19946;-88
2022/08/05 14:05:49;;;;;;;;;;;;;;;;;;6173857;23;20351;-88
2022/08/05 14:08:24;;;;;;;;;;;;;;;;;;6165951;23;19912;-87
2022/08/05 14:11:01;;;;;;;;;;;;;;;;;;6198727;23;19911;-87
2022/08/05 14:13:27;;;;;;;;;;;;;;;;;;6213855;23;20042;-88
2022/08/05 14:15:55;;;;;;;;;;;;;;;;;;6172432;23;19932;-89
2022/08/05 14:18:20;;;;;;;;;;;;;;;;;;6184799;23;20277;-88
2022/08/05 14:20:48;;;;;;;;;;;;;;;;;;6214477;23;19960;-89
2022/08/05 14:23:30;;;;;;;;;;;;;;;;;;6194022;23;19911;-89
2022/08/05 14:25:58;;;;;;;;;;;;;;;;;;6171614;23;19986;-90
2022/08/05 14:28:24;;;;;;;;;;;;;;;;;;6203101;23;19939;-89
2022/08/05 14:30:50;;;;;;;;;;;;;;;;;;6183887;22;20391;-89
2022/08/05 14:33:15;;;;;;;;;;;;;;;;;;6186901;23;19931;-89
2022/08/05 14:35:41;;;;;;;;;;;;;;;;;;6150917;23;19983;-90
2022/08/05 14:38:08;;;;;;;;;;;;;;;;;;6134788;22;19944;-87
2022/08/05 14:40:33;;;;;;;;;;;;;;;;;;6147402;23;19911;-88
2022/08/05 14:42:59;;;;;;;;;;;;;;;;;;6179245;23;19942;-87
2022/08/05 14:45:27;;;;;;;;;;;;;;;;;;6209393;23;19919;-88
2022/08/05 14:47:54;;;;;;;;;;;;;;;;;;6190136;23;19911;-86
2022/08/05 14:50:20;;;;;;;;;;;;;;;;;;6190629;23;19982;-87
2022/08/05 14:52:46;;;;;;;;;;;;;;;;;;6175249;23;19942;-86
2022/08/05 14:55:13;;;;;;;;;;;;;;;;;;6166173;23;19915;-88
2022/08/05 14:57:41;;;;;;;;;;;;;;;;;;6179149;23;19923;-87
2022/08/05 15:00:09;;;;;;;;;;;;;;;;;;6192058;23;20289;-87
2022/08/05 15:02:36;;;;;;;;;;;;;;;;;;6187248;23;19915;-87
2022/08/05 15:05:02;;;;;;;;;;;;;;;;;;6214550;23;20326;-88
2022/08/05 15:07:29;;;;;;;;;;;;;;;;;;6186022;22;19923;-87
2022/08/05 15:09:55;;;;;;;;;;;;;;;;;;6239802;23;19916;-87
2022/08/05 15:12:21;;;;;;;;;;;;;;;;;;6151587;23;19920;-88
2022/08/05 15:14:47;;;;;;;;;;;;;;;;;;6180286;23;19942;-87
2022/08/05 15:17:13;;;;;;;;;;;;;;;;;;6183213;23;19923;-88
2022/08/05 15:19:40;;;;;;;;;;;;;;;;;;6215414;22;19919;-89
2022/08/05 15:22:07;;;;;;;;;;;;;;;;;;6206041;23;19919;-91
2022/08/05 15:24:33;;;;;;;;;;;;;;;;;;6178498;23;19915;-88
2022/08/05 15:26:59;;;;;;;;;;;;;;;;;;6179442;23;20408;-88
2022/08/05 15:29:26;;;;;;;;;;;;;;;;;;6148000;23;19943;-89
2022/08/05 15:31:55;;;;;;;;;;;;;;;;;;6213246;22;20003;-88
2022/08/05 15:34:27;;;;;;;;;;;;;;;;;;6178843;23;19965;-89
2022/08/05 15:37:01;;;;;;;;;;;;;;;;;;6133540;23;20883;-91
2022/08/05 15:39:33;;;;;;;;;;;;;;;;;;6167818;23;21757;-88
2022/08/05 15:42:13;;;;;;;;;;;;;;;;;;6180123;23;19988;-88
2022/08/05 15:44:40;;;;;;;;;;;;;;;;;;6119237;23;19963;-89
2022/08/05 15:47:06;;;;;;;;;;;;;;;;;;6148678;23;19924;-89
2022/08/05 15:49:32;;;;;;;;;;;;;;;;;;6214923;23;20277;-86
2022/08/05 15:51:58;;;;;;;;;;;;;;;;;;6237392;23;19918;-85
2022/08/05 15:54:24;;;;;;;;;;;;;;;;;;6164339;23;19912;-85
2022/08/05 15:56:50;;;;;;;;;;;;;;;;;;6174776;23;19911;-86
2022/08/05 15:59:16;;;;;;;;;;;;;;;;;;6185263;23;19911;-86
2022/08/05 16:01:43;;;;;;;;;;;;;;;;;;6179711;23;19939;-87
2022/08/05 16:04:09;;;;;;;;;;;;;;;;;;6201088;23;19915;-87
2022/08/05 16:06:35;;;;;;;;;;;;;;;;;;6184313;23;19956;-88
2022/08/05 16:09:03;;;;;;;;;;;;;;;;;;6213593;23;19918;-86
2022/08/05 16:11:29;;;;;;;;;;;;;;;;;;6126406;23;19963;-87
2022/08/05 16:13:55;;;;;;;;;;;;;;;;;;6114135;23;19935;-87
2022/08/05 16:16:23;;;;;;;;;;;;;;;;;;6179325;23;19920;-87
2022/08/05 16:18:48;;;;;;;;;;;;;;;;;;6171169;23;19946;-87
2022/08/05 16:21:14;;;;;;;;;;;;;;;;;;6166608;23;19911;-87
2022/08/05 16:23:40;;;;;;;;;;;;;;;;;;6183942;23;19923;-87
2022/08/05 16:26:10;;;;;;;;;;;;;;;;;;6215898;23;19938;-87
2022/08/05 16:28:39;;;;;;;;;;;;;;;;;;6166807;23;20380;-87
2022/08/05 16:31:07;;;;;;;;;;;;;;;;;;6174388;23;19915;-87
2022/08/05 16:33:35;;;;;;;;;;;;;;;;;;6176564;23;20313;-86
2022/08/05 16:36:01;;;;;;;;;;;;;;;;;;6134732;23;19916;-86
2022/08/05 16:38:28;;;;;;;;;;;;;;;;;;6173965;23;19975;-86
2022/08/05 16:40:56;;;;;;;;;;;;;;;;;;6156153;23;19920;-87
2022/08/05 16:43:22;;;;;;;;;;;;;;;;;;6143533;23;19927;-86
2022/08/05 16:45:51;;;;;;;;;;;;;;;;;;6143456;23;19916;-85
2022/08/05 16:48:18;;;;;;;;;;;;;;;;;;6189566;23;20225;-86
2022/08/05 16:50:44;;;;;;;;;;;;;;;;;;6174176;23;19912;-86
2022/08/05 16:53:12;;;;;;;;;;;;;;;;;;6187255;23;19981;-86
2022/08/05 16:55:38;;;;;;;;;;;;;;;;;;6240137;23;19938;-86
2022/08/05 16:58:04;;;;;;;;;;;;;;;;;;6186797;23;20068;-85
2022/08/05 17:00:29;;;;;;;;;;;;;;;;;;6187402;23;19916;-85
2022/08/05 17:02:55;;;;;;;;;;;;;;;;;;6189042;23;20239;-85
2022/08/05 17:05:21;;;;;;;;;;;;;;;;;;6188806;23;19915;-86
2022/08/05 17:07:46;;;;;;;;;;;;;;;;;;6187360;23;19912;-85
2022/08/05 17:10:12;;;;;;;;;;;;;;;;;;6187120;23;19911;-85